sensor_id;sensor_type;location;lat;lon;timestamp;temperature;humidity
23010;DHT22;11671;49.990;8.028;2023-05-28T00:01:32;15.80;99.90
23010;DHT22;11671;49.990;8.028;2023-05-28T00:03:58;15.70;99.90
23010;DHT22;11671;49.990;8.028;2023-05-28T00:06:23;15.70;99.90
23010;DHT22;11671;49.990;8.028;2023-05-28T00:08:49;15.70;99.90
23010;DHT22;11671;49.990;8.028;2023-05-28T00:11:15;15.70;99.90
23010;DHT22;11671;49.990;8.028;2023-05-28T00:13:40;15.70;99.90
23010;DHT22;11671;49.990;8.028;2023-05-28T00:16:06;15.50;99.90
23010;DHT22;11671;49.990;8.028;2023-05-28T00:18:31;15.40;99.90
23010;DHT22;11671;49.990;8.028;2023-05-28T00:21:03;15.30;99.90
23010;DHT22;11671;49.990;8.028;2023-05-28T00:23:28;15.20;99.90
23010;DHT22;11671;49.990;8.028;2023-05-28T00:26:00;15.20;99.90
23010;DHT22;11671;49.990;8.028;2023-05-28T00:28:25;15.20;99.90
23010;DHT22;11671;49.990;8.028;2023-05-28T00:31:14;15.10;99.90
23010;DHT22;11671;49.990;8.028;2023-05-28T00:34:03;15.20;99.90
23010;DHT22;11671;49.990;8.028;2023-05-28T00:36:41;15.10;99.90
23010;DHT22;11671;49.990;8.028;2023-05-28T00:39:43;15.10;99.90
23010;DHT22;11671;49.990;8.028;2023-05-28T00:42:14;15.10;99.90
23010;DHT22;11671;49.990;8.028;2023-05-28T00:44:40;15.10;99.90
23010;DHT22;11671;49.990;8.028;2023-05-28T00:47:14;15.10;99.90
23010;DHT22;11671;49.990;8.028;2023-05-28T00:49:51;15.00;99.90
23010;DHT22;11671;49.990;8.028;2023-05-28T00:52:35;15.00;99.90
23010;DHT22;11671;49.990;8.028;2023-05-28T00:55:20;14.90;99.90
23010;DHT22;11671;49.990;8.028;2023-05-28T00:58:18;14.90;99.90
23010;DHT22;11671;49.990;8.028;2023-05-28T01:01:02;14.90;99.90
23010;DHT22;11671;49.990;8.028;2023-05-28T01:03:56;15.00;99.90
23010;DHT22;11671;49.990;8.028;2023-05-28T01:06:26;14.90;99.90
23010;DHT22;11671;49.990;8.028;2023-05-28T01:08:59;14.90;99.90
23010;DHT22;11671;49.990;8.028;2023-05-28T01:12:22;14.80;99.90
23010;DHT22;11671;49.990;8.028;2023-05-28T01:14:58;14.80;99.90
23010;DHT22;11671;49.990;8.028;2023-05-28T01:20:17;14.70;99.90
23010;DHT22;11671;49.990;8.028;2023-05-28T01:22:52;14.70;99.90
23010;DHT22;11671;49.990;8.028;2023-05-28T01:25:19;14.60;99.90
23010;DHT22;11671;49.990;8.028;2023-05-28T01:27:44;14.50;99.90
23010;DHT22;11671;49.990;8.028;2023-05-28T01:30:10;14.40;99.90
23010;DHT22;11671;49.990;8.028;2023-05-28T01:32:37;14.40;99.90
23010;DHT22;11671;49.990;8.028;2023-05-28T01:35:05;14.30;99.90
23010;DHT22;11671;49.990;8.028;2023-05-28T01:37:32;14.30;99.90
23010;DHT22;11671;49.990;8.028;2023-05-28T01:39:59;14.20;99.90
23010;DHT22;11671;49.990;8.028;2023-05-28T01:42:29;14.20;99.90
23010;DHT22;11671;49.990;8.028;2023-05-28T01:44:56;14.10;99.90
23010;DHT22;11671;49.990;8.028;2023-05-28T01:47:22;14.10;99.90
23010;DHT22;11671;49.990;8.028;2023-05-28T01:49:49;14.00;99.90
23010;DHT22;11671;49.990;8.028;2023-05-28T01:52:15;14.00;99.90
23010;DHT22;11671;49.990;8.028;2023-05-28T01:54:40;14.00;99.90
23010;DHT22;11671;49.990;8.028;2023-05-28T01:57:06;14.00;99.90
23010;DHT22;11671;49.990;8.028;2023-05-28T01:59:32;13.90;99.90
23010;DHT22;11671;49.990;8.028;2023-05-28T02:01:58;13.90;99.90
23010;DHT22;11671;49.990;8.028;2023-05-28T02:04:24;13.80;99.90
23010;DHT22;11671;49.990;8.028;2023-05-28T02:06:49;13.80;99.90
23010;DHT22;11671;49.990;8.028;2023-05-28T02:09:15;13.80;99.90
23010;DHT22;11671;49.990;8.028;2023-05-28T02:11:41;13.80;99.90
23010;DHT22;11671;49.990;8.028;2023-05-28T02:14:07;13.80;99.90
23010;DHT22;11671;49.990;8.028;2023-05-28T02:16:32;13.70;99.90
23010;DHT22;11671;49.990;8.028;2023-05-28T02:18:58;13.70;99.90
23010;DHT22;11671;49.990;8.028;2023-05-28T02:21:24;13.60;99.90
23010;DHT22;11671;49.990;8.028;2023-05-28T02:23:50;13.60;99.90
23010;DHT22;11671;49.990;8.028;2023-05-28T02:26:16;13.60;99.90
23010;DHT22;11671;49.990;8.028;2023-05-28T02:28:42;13.60;99.90
23010;DHT22;11671;49.990;8.028;2023-05-28T02:31:09;13.50;99.90
23010;DHT22;11671;49.990;8.028;2023-05-28T02:33:37;13.50;99.90
23010;DHT22;11671;49.990;8.028;2023-05-28T02:36:02;13.60;99.90
23010;DHT22;11671;49.990;8.028;2023-05-28T02:38:28;13.50;99.90
23010;DHT22;11671;49.990;8.028;2023-05-28T02:40:54;13.40;99.90
23010;DHT22;11671;49.990;8.028;2023-05-28T02:43:19;13.30;99.90
23010;DHT22;11671;49.990;8.028;2023-05-28T02:45:45;13.30;99.90
23010;DHT22;11671;49.990;8.028;2023-05-28T02:48:10;13.30;99.90
23010;DHT22;11671;49.990;8.028;2023-05-28T02:50:36;13.30;99.90
23010;DHT22;11671;49.990;8.028;2023-05-28T02:53:02;13.20;99.90
23010;DHT22;11671;49.990;8.028;2023-05-28T02:55:28;13.20;99.90
23010;DHT22;11671;49.990;8.028;2023-05-28T02:57:53;13.00;99.90
23010;DHT22;11671;49.990;8.028;2023-05-28T03:00:19;13.00;99.90
23010;DHT22;11671;49.990;8.028;2023-05-28T03:05:11;12.90;99.90
23010;DHT22;11671;49.990;8.028;2023-05-28T03:07:36;12.80;99.90
23010;DHT22;11671;49.990;8.028;2023-05-28T03:10:02;12.90;99.90
23010;DHT22;11671;49.990;8.028;2023-05-28T03:12:28;12.90;99.90
23010;DHT22;11671;49.990;8.028;2023-05-28T03:14:54;12.90;99.90
23010;DHT22;11671;49.990;8.028;2023-05-28T03:17:19;13.00;99.90
23010;DHT22;11671;49.990;8.028;2023-05-28T03:19:45;13.00;99.90
23010;DHT22;11671;49.990;8.028;2023-05-28T03:22:10;13.00;99.90
23010;DHT22;11671;49.990;8.028;2023-05-28T03:24:36;13.00;99.90
23010;DHT22;11671;49.990;8.028;2023-05-28T03:27:04;13.00;99.90
23010;DHT22;11671;49.990;8.028;2023-05-28T03:29:31;13.00;99.90
23010;DHT22;11671;49.990;8.028;2023-05-28T03:31:56;13.00;99.90
23010;DHT22;11671;49.990;8.028;2023-05-28T03:34:22;13.00;99.90
23010;DHT22;11671;49.990;8.028;2023-05-28T03:36:49;12.90;99.90
23010;DHT22;11671;49.990;8.028;2023-05-28T03:39:15;13.00;99.90
23010;DHT22;11671;49.990;8.028;2023-05-28T03:41:41;12.90;99.90
23010;DHT22;11671;49.990;8.028;2023-05-28T03:44:07;13.00;99.90
23010;DHT22;11671;49.990;8.028;2023-05-28T03:46:33;13.00;99.90
23010;DHT22;11671;49.990;8.028;2023-05-28T03:48:58;13.00;99.90
23010;DHT22;11671;49.990;8.028;2023-05-28T03:51:25;13.00;99.90
23010;DHT22;11671;49.990;8.028;2023-05-28T03:53:50;13.00;99.90
23010;DHT22;11671;49.990;8.028;2023-05-28T03:56:17;13.00;99.90
23010;DHT22;11671;49.990;8.028;2023-05-28T03:58:45;13.00;99.90
23010;DHT22;11671;49.990;8.028;2023-05-28T04:01:10;12.90;99.90
23010;DHT22;11671;49.990;8.028;2023-05-28T04:03:37;12.80;99.90
23010;DHT22;11671;49.990;8.028;2023-05-28T04:06:03;12.80;99.90
23010;DHT22;11671;49.990;8.028;2023-05-28T04:08:29;12.80;99.90
23010;DHT22;11671;49.990;8.028;2023-05-28T04:10:54;12.90;99.90
23010;DHT22;11671;49.990;8.028;2023-05-28T04:13:20;12.90;99.90
23010;DHT22;11671;49.990;8.028;2023-05-28T04:15:46;13.00;99.90
23010;DHT22;11671;49.990;8.028;2023-05-28T04:18:11;13.00;99.90
23010;DHT22;11671;49.990;8.028;2023-05-28T04:20:37;13.00;99.90
23010;DHT22;11671;49.990;8.028;2023-05-28T04:23:02;13.00;99.90
23010;DHT22;11671;49.990;8.028;2023-05-28T04:25:28;13.10;99.90
23010;DHT22;11671;49.990;8.028;2023-05-28T04:27:54;13.10;99.90
23010;DHT22;11671;49.990;8.028;2023-05-28T04:30:21;13.20;99.90
23010;DHT22;11671;49.990;8.028;2023-05-28T04:32:48;13.20;99.90
23010;DHT22;11671;49.990;8.028;2023-05-28T04:35:16;13.20;99.90
23010;DHT22;11671;49.990;8.028;2023-05-28T04:37:42;13.30;99.90
23010;DHT22;11671;49.990;8.028;2023-05-28T04:40:08;13.40;99.90
23010;DHT22;11671;49.990;8.028;2023-05-28T04:42:40;13.50;99.90
23010;DHT22;11671;49.990;8.028;2023-05-28T04:45:09;13.70;99.90
23010;DHT22;11671;49.990;8.028;2023-05-28T04:47:39;13.80;99.90
23010;DHT22;11671;49.990;8.028;2023-05-28T04:50:05;13.90;99.90
23010;DHT22;11671;49.990;8.028;2023-05-28T04:52:31;14.00;99.90
23010;DHT22;11671;49.990;8.028;2023-05-28T04:54:58;14.20;99.90
23010;DHT22;11671;49.990;8.028;2023-05-28T04:57:24;14.40;99.90
23010;DHT22;11671;49.990;8.028;2023-05-28T04:59:51;14.50;99.90
23010;DHT22;11671;49.990;8.028;2023-05-28T05:02:16;14.60;99.90
23010;DHT22;11671;49.990;8.028;2023-05-28T05:04:44;14.70;99.90
23010;DHT22;11671;49.990;8.028;2023-05-28T05:07:11;14.90;99.90
23010;DHT22;11671;49.990;8.028;2023-05-28T05:09:37;15.10;99.90
23010;DHT22;11671;49.990;8.028;2023-05-28T05:12:02;15.30;99.90
23010;DHT22;11671;49.990;8.028;2023-05-28T05:14:28;15.60;99.90
23010;DHT22;11671;49.990;8.028;2023-05-28T05:16:54;16.40;99.90
23010;DHT22;11671;49.990;8.028;2023-05-28T05:19:19;17.70;99.90
23010;DHT22;11671;49.990;8.028;2023-05-28T05:21:45;18.90;99.90
23010;DHT22;11671;49.990;8.028;2023-05-28T05:24:10;19.90;99.90
23010;DHT22;11671;49.990;8.028;2023-05-28T05:26:36;21.00;99.90
23010;DHT22;11671;49.990;8.028;2023-05-28T05:29:01;21.60;99.90
23010;DHT22;11671;49.990;8.028;2023-05-28T05:31:27;22.30;99.90
23010;DHT22;11671;49.990;8.028;2023-05-28T05:33:52;23.00;99.90
23010;DHT22;11671;49.990;8.028;2023-05-28T05:36:18;23.50;99.90
23010;DHT22;11671;49.990;8.028;2023-05-28T05:38:44;24.20;99.90
23010;DHT22;11671;49.990;8.028;2023-05-28T05:41:11;24.70;99.90
23010;DHT22;11671;49.990;8.028;2023-05-28T05:43:37;25.10;99.90
23010;DHT22;11671;49.990;8.028;2023-05-28T05:46:02;25.30;99.90
23010;DHT22;11671;49.990;8.028;2023-05-28T05:48:28;25.10;99.90
23010;DHT22;11671;49.990;8.028;2023-05-28T05:50:54;25.20;99.90
23010;DHT22;11671;49.990;8.028;2023-05-28T05:53:21;25.20;99.90
23010;DHT22;11671;49.990;8.028;2023-05-28T05:55:47;25.50;99.90
23010;DHT22;11671;49.990;8.028;2023-05-28T05:58:13;26.00;99.90
23010;DHT22;11671;49.990;8.028;2023-05-28T06:00:39;26.30;99.90
23010;DHT22;11671;49.990;8.028;2023-05-28T06:03:05;27.00;99.90
23010;DHT22;11671;49.990;8.028;2023-05-28T06:05:32;27.40;99.90
23010;DHT22;11671;49.990;8.028;2023-05-28T06:07:58;27.70;99.90
23010;DHT22;11671;49.990;8.028;2023-05-28T06:10:23;28.10;99.90
23010;DHT22;11671;49.990;8.028;2023-05-28T06:12:49;28.20;99.90
23010;DHT22;11671;49.990;8.028;2023-05-28T06:15:15;28.40;99.50
23010;DHT22;11671;49.990;8.028;2023-05-28T06:17:41;28.40;99.10
23010;DHT22;11671;49.990;8.028;2023-05-28T06:20:08;28.70;98.30
23010;DHT22;11671;49.990;8.028;2023-05-28T06:22:34;28.70;98.60
23010;DHT22;11671;49.990;8.028;2023-05-28T06:24:59;29.10;96.60
23010;DHT22;11671;49.990;8.028;2023-05-28T06:27:27;29.00;94.20
23010;DHT22;11671;49.990;8.028;2023-05-28T06:29:53;28.10;94.20
23010;DHT22;11671;49.990;8.028;2023-05-28T06:32:19;28.10;95.60
23010;DHT22;11671;49.990;8.028;2023-05-28T06:34:45;28.30;94.80
23010;DHT22;11671;49.990;8.028;2023-05-28T06:37:11;28.30;94.20
23010;DHT22;11671;49.990;8.028;2023-05-28T06:39:37;28.50;93.40
23010;DHT22;11671;49.990;8.028;2023-05-28T06:42:02;28.30;92.70
23010;DHT22;11671;49.990;8.028;2023-05-28T06:44:28;28.50;92.70
23010;DHT22;11671;49.990;8.028;2023-05-28T06:46:54;28.70;91.70
23010;DHT22;11671;49.990;8.028;2023-05-28T06:49:19;28.80;91.30
23010;DHT22;11671;49.990;8.028;2023-05-28T06:51:45;28.50;91.80
23010;DHT22;11671;49.990;8.028;2023-05-28T06:54:11;28.30;93.50
23010;DHT22;11671;49.990;8.028;2023-05-28T06:56:36;28.80;93.70
23010;DHT22;11671;49.990;8.028;2023-05-28T06:59:02;28.40;92.60
23010;DHT22;11671;49.990;8.028;2023-05-28T07:01:28;27.80;93.60
23010;DHT22;11671;49.990;8.028;2023-05-28T07:03:53;28.00;93.10
23010;DHT22;11671;49.990;8.028;2023-05-28T07:06:19;28.30;92.20
23010;DHT22;11671;49.990;8.028;2023-05-28T07:08:44;27.90;92.00
23010;DHT22;11671;49.990;8.028;2023-05-28T07:11:11;27.90;92.50
23010;DHT22;11671;49.990;8.028;2023-05-28T07:13:40;27.90;91.50
23010;DHT22;11671;49.990;8.028;2023-05-28T07:16:06;28.50;92.10
23010;DHT22;11671;49.990;8.028;2023-05-28T07:18:32;29.00;91.20
23010;DHT22;11671;49.990;8.028;2023-05-28T07:20:58;29.20;90.20
23010;DHT22;11671;49.990;8.028;2023-05-28T07:23:24;29.10;89.00
23010;DHT22;11671;49.990;8.028;2023-05-28T07:25:49;29.40;90.30
23010;DHT22;11671;49.990;8.028;2023-05-28T07:28:15;28.60;87.00
23010;DHT22;11671;49.990;8.028;2023-05-28T07:30:41;28.40;90.10
23010;DHT22;11671;49.990;8.028;2023-05-28T07:33:07;28.70;90.40
23010;DHT22;11671;49.990;8.028;2023-05-28T07:35:33;28.40;88.80
23010;DHT22;11671;49.990;8.028;2023-05-28T07:37:59;28.40;88.10
23010;DHT22;11671;49.990;8.028;2023-05-28T07:40:24;28.40;88.70
23010;DHT22;11671;49.990;8.028;2023-05-28T07:42:50;28.50;90.10
23010;DHT22;11671;49.990;8.028;2023-05-28T07:45:16;28.50;86.30
23010;DHT22;11671;49.990;8.028;2023-05-28T07:47:41;28.30;85.80
23010;DHT22;11671;49.990;8.028;2023-05-28T07:50:07;28.50;88.10
23010;DHT22;11671;49.990;8.028;2023-05-28T07:52:34;28.50;88.60
23010;DHT22;11671;49.990;8.028;2023-05-28T07:55:01;28.30;85.00
23010;DHT22;11671;49.990;8.028;2023-05-28T07:57:29;28.40;85.80
23010;DHT22;11671;49.990;8.028;2023-05-28T07:59:55;28.60;86.20
23010;DHT22;11671;49.990;8.028;2023-05-28T08:02:21;28.40;83.50
23010;DHT22;11671;49.990;8.028;2023-05-28T08:04:48;28.60;85.70
23010;DHT22;11671;49.990;8.028;2023-05-28T08:07:14;28.80;86.50
23010;DHT22;11671;49.990;8.028;2023-05-28T08:09:40;29.00;86.40
23010;DHT22;11671;49.990;8.028;2023-05-28T08:12:08;29.10;83.40
23010;DHT22;11671;49.990;8.028;2023-05-28T08:14:34;28.00;84.50
23010;DHT22;11671;49.990;8.028;2023-05-28T08:17:00;27.60;86.30
23010;DHT22;11671;49.990;8.028;2023-05-28T08:19:26;27.80;86.60
23010;DHT22;11671;49.990;8.028;2023-05-28T08:21:52;28.20;88.00
23010;DHT22;11671;49.990;8.028;2023-05-28T08:24:18;28.20;86.30
23010;DHT22;11671;49.990;8.028;2023-05-28T08:26:45;28.10;86.40
23010;DHT22;11671;49.990;8.028;2023-05-28T08:29:11;27.90;90.10
23010;DHT22;11671;49.990;8.028;2023-05-28T08:31:37;28.10;89.20
23010;DHT22;11671;49.990;8.028;2023-05-28T08:34:02;27.60;86.90
23010;DHT22;11671;49.990;8.028;2023-05-28T08:36:28;27.10;89.30
23010;DHT22;11671;49.990;8.028;2023-05-28T08:38:54;26.80;90.30
23010;DHT22;11671;49.990;8.028;2023-05-28T08:41:20;27.00;90.80
23010;DHT22;11671;49.990;8.028;2023-05-28T08:43:46;27.20;91.30
23010;DHT22;11671;49.990;8.028;2023-05-28T08:46:12;27.70;91.10
23010;DHT22;11671;49.990;8.028;2023-05-28T08:48:41;27.90;87.40
23010;DHT22;11671;49.990;8.028;2023-05-28T08:51:07;27.90;90.10
23010;DHT22;11671;49.990;8.028;2023-05-28T08:53:39;27.70;90.10
23010;DHT22;11671;49.990;8.028;2023-05-28T08:56:06;27.10;85.70
23010;DHT22;11671;49.990;8.028;2023-05-28T08:58:34;26.50;84.90
23010;DHT22;11671;49.990;8.028;2023-05-28T09:01:08;26.50;87.60
23010;DHT22;11671;49.990;8.028;2023-05-28T09:03:34;26.60;89.10
23010;DHT22;11671;49.990;8.028;2023-05-28T09:06:01;26.90;90.70
23010;DHT22;11671;49.990;8.028;2023-05-28T09:08:27;27.20;90.30
23010;DHT22;11671;49.990;8.028;2023-05-28T09:10:56;27.50;88.00
23010;DHT22;11671;49.990;8.028;2023-05-28T09:13:22;27.40;88.00
23010;DHT22;11671;49.990;8.028;2023-05-28T09:15:52;27.20;86.70
23010;DHT22;11671;49.990;8.028;2023-05-28T09:18:21;26.90;88.60
23010;DHT22;11671;49.990;8.028;2023-05-28T09:20:50;26.30;86.10
23010;DHT22;11671;49.990;8.028;2023-05-28T09:23:17;26.50;89.00
23010;DHT22;11671;49.990;8.028;2023-05-28T09:25:44;26.80;87.00
23010;DHT22;11671;49.990;8.028;2023-05-28T09:28:11;27.00;86.50
23010;DHT22;11671;49.990;8.028;2023-05-28T09:30:40;26.90;85.10
23010;DHT22;11671;49.990;8.028;2023-05-28T09:33:07;26.90;85.30
23010;DHT22;11671;49.990;8.028;2023-05-28T09:35:34;27.00;84.80
23010;DHT22;11671;49.990;8.028;2023-05-28T09:38:08;26.90;81.80
23010;DHT22;11671;49.990;8.028;2023-05-28T09:40:39;26.80;81.00
23010;DHT22;11671;49.990;8.028;2023-05-28T09:43:05;27.30;81.60
23010;DHT22;11671;49.990;8.028;2023-05-28T09:45:33;27.40;84.00
23010;DHT22;11671;49.990;8.028;2023-05-28T09:48:00;27.00;83.10
23010;DHT22;11671;49.990;8.028;2023-05-28T09:50:26;26.90;83.00
23010;DHT22;11671;49.990;8.028;2023-05-28T09:52:55;27.20;83.50
23010;DHT22;11671;49.990;8.028;2023-05-28T09:55:24;27.20;80.20
23010;DHT22;11671;49.990;8.028;2023-05-28T09:58:10;27.60;81.10
23010;DHT22;11671;49.990;8.028;2023-05-28T10:00:41;27.70;82.50
23010;DHT22;11671;49.990;8.028;2023-05-28T10:05:43;27.80;80.60
23010;DHT22;11671;49.990;8.028;2023-05-28T10:08:15;27.80;78.70
23010;DHT22;11671;49.990;8.028;2023-05-28T10:10:42;27.70;80.50
23010;DHT22;11671;49.990;8.028;2023-05-28T10:13:12;27.50;81.30
23010;DHT22;11671;49.990;8.028;2023-05-28T10:15:38;27.40;78.80
23010;DHT22;11671;49.990;8.028;2023-05-28T10:18:05;27.50;80.70
23010;DHT22;11671;49.990;8.028;2023-05-28T10:20:31;27.70;81.20
23010;DHT22;11671;49.990;8.028;2023-05-28T10:22:57;27.70;78.30
23010;DHT22;11671;49.990;8.028;2023-05-28T10:25:24;27.80;77.70
23010;DHT22;11671;49.990;8.028;2023-05-28T10:27:53;27.70;74.60
23010;DHT22;11671;49.990;8.028;2023-05-28T10:31:01;27.80;76.60
23010;DHT22;11671;49.990;8.028;2023-05-28T10:33:31;27.90;77.70
23010;DHT22;11671;49.990;8.028;2023-05-28T10:35:59;27.80;75.60
23010;DHT22;11671;49.990;8.028;2023-05-28T10:38:26;27.80;75.60
23010;DHT22;11671;49.990;8.028;2023-05-28T10:40:59;27.70;71.50
23010;DHT22;11671;49.990;8.028;2023-05-28T10:57:22;27.90;69.30
23010;DHT22;11671;49.990;8.028;2023-05-28T10:59:57;28.00;68.60
23010;DHT22;11671;49.990;8.028;2023-05-28T11:02:33;28.00;67.10
23010;DHT22;11671;49.990;8.028;2023-05-28T11:05:00;27.90;70.90
23010;DHT22;11671;49.990;8.028;2023-05-28T11:07:53;27.70;71.70
23010;DHT22;11671;49.990;8.028;2023-05-28T11:10:28;28.00;70.30
23010;DHT22;11671;49.990;8.028;2023-05-28T11:12:53;28.00;68.40
23010;DHT22;11671;49.990;8.028;2023-05-28T11:15:21;28.00;69.30
23010;DHT22;11671;49.990;8.028;2023-05-28T11:17:47;28.00;69.60
23010;DHT22;11671;49.990;8.028;2023-05-28T11:20:25;27.90;68.90
23010;DHT22;11671;49.990;8.028;2023-05-28T11:22:51;28.00;69.40
23010;DHT22;11671;49.990;8.028;2023-05-28T11:25:17;27.80;70.00
23010;DHT22;11671;49.990;8.028;2023-05-28T11:27:43;28.00;70.90
23010;DHT22;11671;49.990;8.028;2023-05-28T11:30:13;28.20;71.00
23010;DHT22;11671;49.990;8.028;2023-05-28T11:32:39;28.20;70.00
23010;DHT22;11671;49.990;8.028;2023-05-28T11:35:05;27.90;69.40
23010;DHT22;11671;49.990;8.028;2023-05-28T11:37:33;27.90;69.10
23010;DHT22;11671;49.990;8.028;2023-05-28T11:40:00;27.80;67.40
23010;DHT22;11671;49.990;8.028;2023-05-28T11:42:29;27.90;68.70
23010;DHT22;11671;49.990;8.028;2023-05-28T11:44:55;28.10;70.00
23010;DHT22;11671;49.990;8.028;2023-05-28T11:47:21;28.40;69.00
23010;DHT22;11671;49.990;8.028;2023-05-28T11:49:47;28.50;67.10
23010;DHT22;11671;49.990;8.028;2023-05-28T11:52:18;28.60;68.10
23010;DHT22;11671;49.990;8.028;2023-05-28T11:54:46;28.30;68.10
23010;DHT22;11671;49.990;8.028;2023-05-28T11:57:20;28.20;65.50
23010;DHT22;11671;49.990;8.028;2023-05-28T12:00:03;28.40;67.00
23010;DHT22;11671;49.990;8.028;2023-05-28T12:05:11;28.60;64.70
23010;DHT22;11671;49.990;8.028;2023-05-28T12:07:36;28.50;63.80
23010;DHT22;11671;49.990;8.028;2023-05-28T12:10:10;28.50;65.20
23010;DHT22;11671;49.990;8.028;2023-05-28T12:15:06;29.00;63.70
23010;DHT22;11671;49.990;8.028;2023-05-28T12:17:36;29.00;65.20
23010;DHT22;11671;49.990;8.028;2023-05-28T12:22:32;28.90;63.50
23010;DHT22;11671;49.990;8.028;2023-05-28T12:24:58;28.90;63.40
23010;DHT22;11671;49.990;8.028;2023-05-28T12:27:24;29.00;64.00
23010;DHT22;11671;49.990;8.028;2023-05-28T12:29:49;29.20;65.20
23010;DHT22;11671;49.990;8.028;2023-05-28T12:32:15;29.40;63.40
23010;DHT22;11671;49.990;8.028;2023-05-28T12:34:41;29.60;64.00
23010;DHT22;11671;49.990;8.028;2023-05-28T12:37:06;29.40;64.10
23010;DHT22;11671;49.990;8.028;2023-05-28T12:39:32;29.30;64.90
23010;DHT22;11671;49.990;8.028;2023-05-28T12:41:58;29.30;65.50
23010;DHT22;11671;49.990;8.028;2023-05-28T12:44:23;28.80;65.90
23010;DHT22;11671;49.990;8.028;2023-05-28T12:46:49;28.50;66.90
23010;DHT22;11671;49.990;8.028;2023-05-28T12:49:16;28.70;66.40
23010;DHT22;11671;49.990;8.028;2023-05-28T12:51:41;28.70;64.50
23010;DHT22;11671;49.990;8.028;2023-05-28T12:54:07;28.60;64.80
23010;DHT22;11671;49.990;8.028;2023-05-28T12:56:33;28.90;65.30
23010;DHT22;11671;49.990;8.028;2023-05-28T12:58:59;29.00;64.80
23010;DHT22;11671;49.990;8.028;2023-05-28T13:01:24;29.10;63.80
23010;DHT22;11671;49.990;8.028;2023-05-28T13:03:51;29.30;64.30
23010;DHT22;11671;49.990;8.028;2023-05-28T13:06:17;29.20;67.00
23010;DHT22;11671;49.990;8.028;2023-05-28T13:08:43;29.30;67.20
23010;DHT22;11671;49.990;8.028;2023-05-28T13:11:09;29.60;66.50
23010;DHT22;11671;49.990;8.028;2023-05-28T13:13:34;29.60;67.40
23010;DHT22;11671;49.990;8.028;2023-05-28T13:16:00;29.20;66.80
23010;DHT22;11671;49.990;8.028;2023-05-28T13:18:26;29.20;64.50
23010;DHT22;11671;49.990;8.028;2023-05-28T13:20:51;29.30;65.70
23010;DHT22;11671;49.990;8.028;2023-05-28T13:23:17;29.40;64.20
23010;DHT22;11671;49.990;8.028;2023-05-28T13:25:43;29.50;66.30
23010;DHT22;11671;49.990;8.028;2023-05-28T13:28:08;29.60;66.80
23010;DHT22;11671;49.990;8.028;2023-05-28T13:30:34;29.60;67.20
23010;DHT22;11671;49.990;8.028;2023-05-28T13:32:59;29.70;67.50
23010;DHT22;11671;49.990;8.028;2023-05-28T13:35:25;29.70;66.00
23010;DHT22;11671;49.990;8.028;2023-05-28T13:37:51;29.60;67.00
23010;DHT22;11671;49.990;8.028;2023-05-28T13:40:17;29.70;66.40
23010;DHT22;11671;49.990;8.028;2023-05-28T13:42:46;29.70;65.90
23010;DHT22;11671;49.990;8.028;2023-05-28T13:45:15;30.00;66.20
23010;DHT22;11671;49.990;8.028;2023-05-28T13:47:41;30.00;66.30
23010;DHT22;11671;49.990;8.028;2023-05-28T13:50:07;29.90;66.40
23010;DHT22;11671;49.990;8.028;2023-05-28T13:52:33;30.00;65.90
23010;DHT22;11671;49.990;8.028;2023-05-28T13:54:59;30.10;66.30
23010;DHT22;11671;49.990;8.028;2023-05-28T13:57:25;30.20;67.20
23010;DHT22;11671;49.990;8.028;2023-05-28T13:59:50;30.30;66.10
23010;DHT22;11671;49.990;8.028;2023-05-28T14:02:16;30.40;66.90
23010;DHT22;11671;49.990;8.028;2023-05-28T14:04:42;30.00;66.20
23010;DHT22;11671;49.990;8.028;2023-05-28T14:07:07;29.30;66.90
23010;DHT22;11671;49.990;8.028;2023-05-28T14:09:34;29.10;66.80
23010;DHT22;11671;49.990;8.028;2023-05-28T14:12:02;29.10;67.10
23010;DHT22;11671;49.990;8.028;2023-05-28T14:14:28;29.50;66.40
23010;DHT22;11671;49.990;8.028;2023-05-28T14:16:54;30.00;66.50
23010;DHT22;11671;49.990;8.028;2023-05-28T14:19:19;30.20;65.00
23010;DHT22;11671;49.990;8.028;2023-05-28T14:21:46;30.30;65.40
23010;DHT22;11671;49.990;8.028;2023-05-28T14:24:11;30.30;66.80
23010;DHT22;11671;49.990;8.028;2023-05-28T14:26:37;30.40;65.90
23010;DHT22;11671;49.990;8.028;2023-05-28T14:29:02;30.30;65.00
23010;DHT22;11671;49.990;8.028;2023-05-28T14:31:28;30.10;64.60
23010;DHT22;11671;49.990;8.028;2023-05-28T14:33:54;30.20;63.10
23010;DHT22;11671;49.990;8.028;2023-05-28T14:36:19;30.20;63.20
23010;DHT22;11671;49.990;8.028;2023-05-28T14:38:45;29.90;63.90
23010;DHT22;11671;49.990;8.028;2023-05-28T14:41:11;29.90;63.70
23010;DHT22;11671;49.990;8.028;2023-05-28T14:43:36;30.00;63.60
23010;DHT22;11671;49.990;8.028;2023-05-28T14:46:02;30.10;63.60
23010;DHT22;11671;49.990;8.028;2023-05-28T14:48:28;30.30;63.70
23010;DHT22;11671;49.990;8.028;2023-05-28T14:50:53;30.00;63.10
23010;DHT22;11671;49.990;8.028;2023-05-28T14:53:19;30.20;63.20
23010;DHT22;11671;49.990;8.028;2023-05-28T14:55:45;30.50;63.50
23010;DHT22;11671;49.990;8.028;2023-05-28T14:58:10;30.50;60.60
23010;DHT22;11671;49.990;8.028;2023-05-28T15:00:36;30.50;61.10
23010;DHT22;11671;49.990;8.028;2023-05-28T15:03:02;30.40;59.90
23010;DHT22;11671;49.990;8.028;2023-05-28T15:05:27;30.40;60.60
23010;DHT22;11671;49.990;8.028;2023-05-28T15:07:54;30.30;59.20
23010;DHT22;11671;49.990;8.028;2023-05-28T15:10:21;30.10;59.00
23010;DHT22;11671;49.990;8.028;2023-05-28T15:12:47;29.90;59.60
23010;DHT22;11671;49.990;8.028;2023-05-28T15:15:13;29.80;59.60
23010;DHT22;11671;49.990;8.028;2023-05-28T15:17:40;29.40;59.50
23010;DHT22;11671;49.990;8.028;2023-05-28T15:20:06;29.50;59.70
23010;DHT22;11671;49.990;8.028;2023-05-28T15:22:32;29.50;60.70
23010;DHT22;11671;49.990;8.028;2023-05-28T15:24:57;29.70;62.80
23010;DHT22;11671;49.990;8.028;2023-05-28T15:27:23;29.80;62.40
23010;DHT22;11671;49.990;8.028;2023-05-28T15:29:49;30.10;60.60
23010;DHT22;11671;49.990;8.028;2023-05-28T15:32:16;30.10;61.30
23010;DHT22;11671;49.990;8.028;2023-05-28T15:34:42;29.90;60.00
23010;DHT22;11671;49.990;8.028;2023-05-28T15:37:08;29.80;59.70
23010;DHT22;11671;49.990;8.028;2023-05-28T15:39:34;29.80;59.80
23010;DHT22;11671;49.990;8.028;2023-05-28T15:42:04;29.80;59.70
23010;DHT22;11671;49.990;8.028;2023-05-28T15:44:30;29.70;59.70
23010;DHT22;11671;49.990;8.028;2023-05-28T15:46:56;29.40;61.50
23010;DHT22;11671;49.990;8.028;2023-05-28T15:49:21;29.40;61.60
23010;DHT22;11671;49.990;8.028;2023-05-28T15:51:47;29.50;61.10
23010;DHT22;11671;49.990;8.028;2023-05-28T15:54:13;29.50;60.40
23010;DHT22;11671;49.990;8.028;2023-05-28T15:56:39;29.50;60.70
23010;DHT22;11671;49.990;8.028;2023-05-28T15:59:04;29.50;61.80
23010;DHT22;11671;49.990;8.028;2023-05-28T16:01:30;29.50;61.90